sensor_id;sensor_type;location;lat;lon;timestamp;pressure;altitude;pressure_sealevel;temperature
27986;BMP280;15453;53.692;10.168;2023-01-04T00:01:58;101712.53;;;9.74
27986;BMP280;15453;53.692;10.168;2023-01-04T00:04:23;101712.53;;;9.74
27986;BMP280;15453;53.692;10.168;2023-01-04T00:06:49;101716.94;;;9.75
27986;BMP280;15453;53.692;10.168;2023-01-04T00:09:14;101704.31;;;9.74
27986;BMP280;15453;53.692;10.168;2023-01-04T00:11:39;101696.94;;;9.75
27986;BMP280;15453;53.692;10.168;2023-01-04T00:14:05;101684.31;;;9.74
27986;BMP280;15453;53.692;10.168;2023-01-04T00:16:30;101685.38;;;9.73
27986;BMP280;15453;53.692;10.168;2023-01-04T00:18:56;101683.25;;;9.75
27986;BMP280;15453;53.692;10.168;2023-01-04T00:21:27;101676.75;;;9.76
27986;BMP280;15453;53.692;10.168;2023-01-04T00:23:55;101665.16;;;9.74
27986;BMP280;15453;53.692;10.168;2023-01-04T00:26:24;101664.97;;;9.75
27986;BMP280;15453;53.692;10.168;2023-01-04T00:29:04;101652.13;;;9.76
27986;BMP280;15453;53.692;10.168;2023-01-04T00:31:30;101647.69;;;9.75
27986;BMP280;15453;53.692;10.168;2023-01-04T00:33:58;101651.06;;;9.77
27986;BMP280;15453;53.692;10.168;2023-01-04T00:36:24;101646.19;;;9.79
27986;BMP280;15453;53.692;10.168;2023-01-04T00:38:50;101652.91;;;9.83
27986;BMP280;15453;53.692;10.168;2023-01-04T00:41:39;101652.91;;;9.83
27986;BMP280;15453;53.692;10.168;2023-01-04T00:44:05;101635.03;;;9.80
27986;BMP280;15453;53.692;10.168;2023-01-04T00:46:32;101617.56;;;9.81
27986;BMP280;15453;53.692;10.168;2023-01-04T00:48:58;101614.59;;;9.83
27986;BMP280;15453;53.692;10.168;2023-01-04T00:51:23;101614.38;;;9.84
27986;BMP280;15453;53.692;10.168;2023-01-04T00:53:49;101603.19;;;9.86
27986;BMP280;15453;53.692;10.168;2023-01-04T00:56:14;101594.19;;;9.85
27986;BMP280;15453;53.692;10.168;2023-01-04T00:58:39;101588.72;;;9.85
27986;BMP280;15453;53.692;10.168;2023-01-04T01:01:06;101579.44;;;9.86
27986;BMP280;15453;53.692;10.168;2023-01-04T01:03:31;101580.88;;;9.89
27986;BMP280;15453;53.692;10.168;2023-01-04T01:06:01;101566.13;;;9.90
27986;BMP280;15453;53.692;10.168;2023-01-04T01:08:26;101570.53;;;9.91
27986;BMP280;15453;53.692;10.168;2023-01-04T01:10:53;101559.59;;;9.91
27986;BMP280;15453;53.692;10.168;2023-01-04T01:13:19;101546.91;;;9.96
27986;BMP280;15453;53.692;10.168;2023-01-04T01:15:45;101547.75;;;9.97
27986;BMP280;15453;53.692;10.168;2023-01-04T01:18:10;101542.06;;;9.98
27986;BMP280;15453;53.692;10.168;2023-01-04T01:20:40;101542.06;;;9.98
27986;BMP280;15453;53.692;10.168;2023-01-04T01:23:05;101543.94;;;9.98
27986;BMP280;15453;53.692;10.168;2023-01-04T01:25:32;101536.75;;;10.03
27986;BMP280;15453;53.692;10.168;2023-01-04T01:27:58;101536.75;;;10.03
27986;BMP280;15453;53.692;10.168;2023-01-04T01:30:23;101528.75;;;10.02
27986;BMP280;15453;53.692;10.168;2023-01-04T01:32:48;101528.72;;;10.08
27986;BMP280;15453;53.692;10.168;2023-01-04T01:35:13;101519.44;;;10.09
27986;BMP280;15453;53.692;10.168;2023-01-04T01:37:38;101519.44;;;10.09
27986;BMP280;15453;53.692;10.168;2023-01-04T01:40:04;101508.47;;;10.09
27986;BMP280;15453;53.692;10.168;2023-01-04T01:42:30;101495.56;;;10.16
27986;BMP280;15453;53.692;10.168;2023-01-04T01:45:00;101495.56;;;10.16
27986;BMP280;15453;53.692;10.168;2023-01-04T01:47:36;101482.09;;;10.15
27986;BMP280;15453;53.692;10.168;2023-01-04T01:50:02;101490.09;;;10.16
27986;BMP280;15453;53.692;10.168;2023-01-04T01:52:30;101475.09;;;10.19
27986;BMP280;15453;53.692;10.168;2023-01-04T01:55:04;101468.34;;;10.21
27986;BMP280;15453;53.692;10.168;2023-01-04T01:57:33;101462.63;;;10.23
27986;BMP280;15453;53.692;10.168;2023-01-04T02:00:04;101452.31;;;10.25
27986;BMP280;15453;53.692;10.168;2023-01-04T02:02:30;101441.94;;;10.27
27986;BMP280;15453;53.692;10.168;2023-01-04T02:04:57;101444.22;;;10.30
27986;BMP280;15453;53.692;10.168;2023-01-04T02:07:25;101434.94;;;10.31
27986;BMP280;15453;53.692;10.168;2023-01-04T02:09:53;101430.31;;;10.31
27986;BMP280;15453;53.692;10.168;2023-01-04T02:12:18;101416.75;;;10.36
27986;BMP280;15453;53.692;10.168;2023-01-04T02:14:46;101415.69;;;10.37
27986;BMP280;15453;53.692;10.168;2023-01-04T02:20:11;101404.72;;;10.37
27986;BMP280;15453;53.692;10.168;2023-01-04T02:22:56;101397.97;;;10.40
27986;BMP280;15453;53.692;10.168;2023-01-04T02:25:56;101394.53;;;10.44
27986;BMP280;15453;53.692;10.168;2023-01-04T02:28:50;101377.25;;;10.44
27986;BMP280;15453;53.692;10.168;2023-01-04T02:31:33;101379.31;;;10.48
27986;BMP280;15453;53.692;10.168;2023-01-04T02:34:12;101360.94;;;10.49
27986;BMP280;15453;53.692;10.168;2023-01-04T02:42:08;101340.63;;;10.56
27986;BMP280;15453;53.692;10.168;2023-01-04T02:44:52;101345.25;;;10.56
27986;BMP280;15453;53.692;10.168;2023-01-04T02:47:32;101335.38;;;10.55
27986;BMP280;15453;53.692;10.168;2023-01-04T02:50:32;101334.31;;;10.56
27986;BMP280;15453;53.692;10.168;2023-01-04T02:53:08;101311.94;;;10.59
27986;BMP280;15453;53.692;10.168;2023-01-04T02:58:49;101293.56;;;10.59
27986;BMP280;15453;53.692;10.168;2023-01-04T03:05:01;101267.03;;;10.60
27986;BMP280;15453;53.692;10.168;2023-01-04T03:10:18;101244.88;;;10.61
27986;BMP280;15453;53.692;10.168;2023-01-04T03:13:02;101244.66;;;10.63
27986;BMP280;15453;53.692;10.168;2023-01-04T03:15:33;101216.28;;;10.69
27986;BMP280;15453;53.692;10.168;2023-01-04T03:18:10;101216.28;;;10.69
27986;BMP280;15453;53.692;10.168;2023-01-04T03:20:37;101220.13;;;10.68
27986;BMP280;15453;53.692;10.168;2023-01-04T03:23:06;101198.78;;;10.70
27986;BMP280;15453;53.692;10.168;2023-01-04T03:25:58;101208.06;;;10.69
27986;BMP280;15453;53.692;10.168;2023-01-04T03:28:44;101197.72;;;10.71
27986;BMP280;15453;53.692;10.168;2023-01-04T03:31:43;101192.81;;;10.73
27986;BMP280;15453;53.692;10.168;2023-01-04T03:34:29;101172.81;;;10.72
27986;BMP280;15453;53.692;10.168;2023-01-04T03:37:22;101167.94;;;10.74
27986;BMP280;15453;53.692;10.168;2023-01-04T03:43:06;101151.97;;;10.71
27986;BMP280;15453;53.692;10.168;2023-01-04T03:45:56;101135.53;;;10.71
27986;BMP280;15453;53.692;10.168;2023-01-04T03:48:47;101118.88;;;10.73
27986;BMP280;15453;53.692;10.168;2023-01-04T03:51:20;101120.75;;;10.72
27986;BMP280;15453;53.692;10.168;2023-01-04T03:53:59;101115.78;;;10.69
27986;BMP280;15453;53.692;10.168;2023-01-04T03:56:28;101107.31;;;10.71
27986;BMP280;15453;53.692;10.168;2023-01-04T03:58:54;101104.31;;;10.72
27986;BMP280;15453;53.692;10.168;2023-01-04T04:01:20;101084.34;;;10.72
27986;BMP280;15453;53.692;10.168;2023-01-04T04:03:47;101085.13;;;10.72
27986;BMP280;15453;53.692;10.168;2023-01-04T04:06:31;101080.75;;;10.71
27986;BMP280;15453;53.692;10.168;2023-01-04T04:09:14;101067.53;;;10.68
27986;BMP280;15453;53.692;10.168;2023-01-04T04:11:40;101063.72;;;10.69
27986;BMP280;15453;53.692;10.168;2023-01-04T04:14:05;101059.31;;;10.68
27986;BMP280;15453;53.692;10.168;2023-01-04T04:16:30;101050.75;;;10.65
27986;BMP280;15453;53.692;10.168;2023-01-04T04:18:55;101045.28;;;10.65
27986;BMP280;15453;53.692;10.168;2023-01-04T04:21:21;101048.84;;;10.65
27986;BMP280;15453;53.692;10.168;2023-01-04T04:23:47;101046.59;;;10.62
27986;BMP280;15453;53.692;10.168;2023-01-04T04:26:12;101039.22;;;10.63
27986;BMP280;15453;53.692;10.168;2023-01-04T04:28:37;101029.59;;;10.60
27986;BMP280;15453;53.692;10.168;2023-01-04T04:31:04;101023.25;;;10.60
27986;BMP280;15453;53.692;10.168;2023-01-04T04:33:29;101013.63;;;10.57
27986;BMP280;15453;53.692;10.168;2023-01-04T04:35:54;101010.41;;;10.60
27986;BMP280;15453;53.692;10.168;2023-01-04T04:38:20;101010.41;;;10.60
27986;BMP280;15453;53.692;10.168;2023-01-04T04:40:46;101006.72;;;10.55
27986;BMP280;15453;53.692;10.168;2023-01-04T04:43:32;101009.47;;;10.55
27986;BMP280;15453;53.692;10.168;2023-01-04T04:45:57;100984.44;;;10.51
27986;BMP280;15453;53.692;10.168;2023-01-04T04:48:22;100979.25;;;10.50
27986;BMP280;15453;53.692;10.168;2023-01-04T04:50:48;100979.25;;;10.50
27986;BMP280;15453;53.692;10.168;2023-01-04T04:53:13;100969.00;;;10.45
27986;BMP280;15453;53.692;10.168;2023-01-04T04:55:38;100965.66;;;10.43
27986;BMP280;15453;53.692;10.168;2023-01-04T04:58:03;100967.59;;;10.43
27986;BMP280;15453;53.692;10.168;2023-01-04T05:00:29;100967.59;;;10.43
27986;BMP280;15453;53.692;10.168;2023-01-04T05:02:57;100943.44;;;10.40
27986;BMP280;15453;53.692;10.168;2023-01-04T05:05:22;100943.44;;;10.40
27986;BMP280;15453;53.692;10.168;2023-01-04T05:07:48;100924.50;;;10.38
27986;BMP280;15453;53.692;10.168;2023-01-04T05:10:13;100924.50;;;10.38
27986;BMP280;15453;53.692;10.168;2023-01-04T05:12:38;100912.38;;;10.34
27986;BMP280;15453;53.692;10.168;2023-01-04T05:15:22;100903.34;;;10.34
27986;BMP280;15453;53.692;10.168;2023-01-04T05:17:47;100896.47;;;10.31
27986;BMP280;15453;53.692;10.168;2023-01-04T05:20:12;100903.00;;;10.30
27986;BMP280;15453;53.692;10.168;2023-01-04T05:22:38;100902.19;;;10.30
27986;BMP280;15453;53.692;10.168;2023-01-04T05:25:03;100892.28;;;10.29
27986;BMP280;15453;53.692;10.168;2023-01-04T05:27:29;100895.00;;;10.29
27986;BMP280;15453;53.692;10.168;2023-01-04T05:29:54;100877.53;;;10.30
27986;BMP280;15453;53.692;10.168;2023-01-04T05:32:55;100883.25;;;10.28
27986;BMP280;15453;53.692;10.168;2023-01-04T05:35:20;100866.59;;;10.30
27986;BMP280;15453;53.692;10.168;2023-01-04T05:37:46;100853.94;;;10.29
27986;BMP280;15453;53.692;10.168;2023-01-04T05:40:11;100860.50;;;10.28
27986;BMP280;15453;53.692;10.168;2023-01-04T05:42:36;100850.41;;;10.28
27986;BMP280;15453;53.692;10.168;2023-01-04T05:45:01;100842.53;;;10.32
27986;BMP280;15453;53.692;10.168;2023-01-04T05:47:27;100826.09;;;10.32
27986;BMP280;15453;53.692;10.168;2023-01-04T05:49:52;100827.50;;;10.34
27986;BMP280;15453;53.692;10.168;2023-01-04T05:52:18;100818.25;;;10.35
27986;BMP280;15453;53.692;10.168;2023-01-04T05:54:44;100810.84;;;10.36
27986;BMP280;15453;53.692;10.168;2023-01-04T05:57:09;100802.88;;;10.34
27986;BMP280;15453;53.692;10.168;2023-01-04T05:59:35;100791.13;;;10.34
27986;BMP280;15453;53.692;10.168;2023-01-04T06:02:01;100791.69;;;10.36
27986;BMP280;15453;53.692;10.168;2023-01-04T06:04:26;100784.06;;;10.38
27986;BMP280;15453;53.692;10.168;2023-01-04T06:06:51;100776.41;;;10.40
27986;BMP280;15453;53.692;10.168;2023-01-04T06:09:17;100779.16;;;10.40
27986;BMP280;15453;53.692;10.168;2023-01-04T06:11:42;100775.34;;;10.41
27986;BMP280;15453;53.692;10.168;2023-01-04T06:14:07;100765.00;;;10.43
27986;BMP280;15453;53.692;10.168;2023-01-04T06:16:32;100766.88;;;10.42
27986;BMP280;15453;53.692;10.168;2023-01-04T06:18:58;100766.16;;;10.47
27986;BMP280;15453;53.692;10.168;2023-01-04T06:21:23;100751.88;;;10.45
27986;BMP280;15453;53.692;10.168;2023-01-04T06:23:50;100754.34;;;10.46
27986;BMP280;15453;53.692;10.168;2023-01-04T06:26:15;100752.06;;;10.55
27986;BMP280;15453;53.692;10.168;2023-01-04T06:28:40;100752.06;;;10.55
27986;BMP280;15453;53.692;10.168;2023-01-04T06:31:06;100746.81;;;10.53
27986;BMP280;15453;53.692;10.168;2023-01-04T06:33:33;100744.66;;;10.55
27986;BMP280;15453;53.692;10.168;2023-01-04T06:35:58;100742.75;;;10.56
27986;BMP280;15453;53.692;10.168;2023-01-04T06:38:23;100729.97;;;10.61
27986;BMP280;15453;53.692;10.168;2023-01-04T06:40:49;100729.97;;;10.61
27986;BMP280;15453;53.692;10.168;2023-01-04T06:43:14;100725.06;;;10.63
27986;BMP280;15453;53.692;10.168;2023-01-04T06:45:41;100709.22;;;10.65
27986;BMP280;15453;53.692;10.168;2023-01-04T06:48:06;100705.16;;;10.68
27986;BMP280;15453;53.692;10.168;2023-01-04T06:50:31;100697.25;;;10.71
27986;BMP280;15453;53.692;10.168;2023-01-04T06:52:56;100689.63;;;10.73
27986;BMP280;15453;53.692;10.168;2023-01-04T06:55:22;100696.50;;;10.76
27986;BMP280;15453;53.692;10.168;2023-01-04T06:57:47;100688.06;;;10.77
27986;BMP280;15453;53.692;10.168;2023-01-04T07:00:13;100677.66;;;10.79
27986;BMP280;15453;53.692;10.168;2023-01-04T07:02:38;100679.72;;;10.89
27986;BMP280;15453;53.692;10.168;2023-01-04T07:05:04;100679.72;;;10.89
27986;BMP280;15453;53.692;10.168;2023-01-04T07:07:31;100662.69;;;10.87
27986;BMP280;15453;53.692;10.168;2023-01-04T07:09:56;100668.50;;;10.90
27986;BMP280;15453;53.692;10.168;2023-01-04T07:12:22;100663.34;;;10.94
27986;BMP280;15453;53.692;10.168;2023-01-04T07:14:47;100643.91;;;10.95
27986;BMP280;15453;53.692;10.168;2023-01-04T07:17:12;100643.16;;;11.00
27986;BMP280;15453;53.692;10.168;2023-01-04T07:19:38;100639.09;;;11.02
27986;BMP280;15453;53.692;10.168;2023-01-04T07:22:03;100633.31;;;11.04
27986;BMP280;15453;53.692;10.168;2023-01-04T07:24:28;100632.00;;;11.06
27986;BMP280;15453;53.692;10.168;2023-01-04T07:26:53;100617.78;;;11.09
27986;BMP280;15453;53.692;10.168;2023-01-04T07:29:19;100618.34;;;11.11
27986;BMP280;15453;53.692;10.168;2023-01-04T07:31:47;100624.16;;;11.15
27986;BMP280;15453;53.692;10.168;2023-01-04T07:34:15;100614.84;;;11.16
27986;BMP280;15453;53.692;10.168;2023-01-04T07:36:40;100614.34;;;11.19
27986;BMP280;15453;53.692;10.168;2023-01-04T07:39:07;100613.31;;;11.25
27986;BMP280;15453;53.692;10.168;2023-01-04T07:41:35;100610.03;;;11.28
27986;BMP280;15453;53.692;10.168;2023-01-04T07:44:00;100618.66;;;11.36
27986;BMP280;15453;53.692;10.168;2023-01-04T07:46:26;100618.66;;;11.36
27986;BMP280;15453;53.692;10.168;2023-01-04T07:48:52;100605.44;;;11.33
27986;BMP280;15453;53.692;10.168;2023-01-04T07:51:17;100594.31;;;11.45
27986;BMP280;15453;53.692;10.168;2023-01-04T07:53:42;100594.31;;;11.45
27986;BMP280;15453;53.692;10.168;2023-01-04T07:56:07;100582.84;;;11.48
27986;BMP280;15453;53.692;10.168;2023-01-04T07:58:33;100586.19;;;11.50
27986;BMP280;15453;53.692;10.168;2023-01-04T08:01:06;100590.56;;;11.51
27986;BMP280;15453;53.692;10.168;2023-01-04T08:03:31;100592.25;;;11.57
27986;BMP280;15453;53.692;10.168;2023-01-04T08:05:57;100585.44;;;11.59
27986;BMP280;15453;53.692;10.168;2023-01-04T08:08:22;100581.94;;;11.64
27986;BMP280;15453;53.692;10.168;2023-01-04T08:10:47;100594.31;;;11.66
27986;BMP280;15453;53.692;10.168;2023-01-04T08:13:12;100581.72;;;11.70
27986;BMP280;15453;53.692;10.168;2023-01-04T08:15:37;100590.50;;;11.72
27986;BMP280;15453;53.692;10.168;2023-01-04T08:18:03;100584.50;;;11.75
27986;BMP280;15453;53.692;10.168;2023-01-04T08:20:28;100588.66;;;11.78
27986;BMP280;15453;53.692;10.168;2023-01-04T08:22:53;100584.81;;;11.79
27986;BMP280;15453;53.692;10.168;2023-01-04T08:25:18;100582.41;;;11.82
27986;BMP280;15453;53.692;10.168;2023-01-04T08:27:44;100581.59;;;11.87
27986;BMP280;15453;53.692;10.168;2023-01-04T08:30:09;100568.50;;;11.94
27986;BMP280;15453;53.692;10.168;2023-01-04T08:32:34;100568.50;;;11.94
27986;BMP280;15453;53.692;10.168;2023-01-04T08:35:00;100572.63;;;11.97
27986;BMP280;15453;53.692;10.168;2023-01-04T08:37:25;100569.88;;;11.97
27986;BMP280;15453;53.692;10.168;2023-01-04T08:39:50;100572.09;;;12.00
27986;BMP280;15453;53.692;10.168;2023-01-04T08:42:16;100569.97;;;12.07
27986;BMP280;15453;53.692;10.168;2023-01-04T08:44:41;100569.97;;;12.07
27986;BMP280;15453;53.692;10.168;2023-01-04T08:47:06;100562.56;;;12.07
27986;BMP280;15453;53.692;10.168;2023-01-04T08:49:32;100553.78;;;12.10
27986;BMP280;15453;53.692;10.168;2023-01-04T08:51:57;100570.25;;;12.10
27986;BMP280;15453;53.692;10.168;2023-01-04T08:54:22;100545.59;;;12.15
27986;BMP280;15453;53.692;10.168;2023-01-04T08:56:48;100564.56;;;12.17
27986;BMP280;15453;53.692;10.168;2023-01-04T08:59:13;100549.22;;;12.26
27986;BMP280;15453;53.692;10.168;2023-01-04T09:01:39;100549.22;;;12.26
27986;BMP280;15453;53.692;10.168;2023-01-04T09:04:05;100545.69;;;12.25
27986;BMP280;15453;53.692;10.168;2023-01-04T09:06:30;100542.38;;;12.28
27986;BMP280;15453;53.692;10.168;2023-01-04T09:08:56;100542.97;;;12.30
27986;BMP280;15453;53.692;10.168;2023-01-04T09:11:22;100540.25;;;12.35
27986;BMP280;15453;53.692;10.168;2023-01-04T09:13:48;100540.25;;;12.35
27986;BMP280;15453;53.692;10.168;2023-01-04T09:16:18;100542.72;;;12.37
27986;BMP280;15453;53.692;10.168;2023-01-04T09:18:44;100536.72;;;12.45
27986;BMP280;15453;53.692;10.168;2023-01-04T09:21:14;100536.72;;;12.45
27986;BMP280;15453;53.692;10.168;2023-01-04T09:23:41;100528.50;;;12.45
27986;BMP280;15453;53.692;10.168;2023-01-04T09:26:08;100526.28;;;12.47
27986;BMP280;15453;53.692;10.168;2023-01-04T09:28:34;100524.41;;;12.52
27986;BMP280;15453;53.692;10.168;2023-01-04T09:31:26;100518.91;;;12.52
27986;BMP280;15453;53.692;10.168;2023-01-04T09:33:53;100510.66;;;12.52
27986;BMP280;15453;53.692;10.168;2023-01-04T09:36:18;100512.06;;;12.60
27986;BMP280;15453;53.692;10.168;2023-01-04T09:38:44;100516.19;;;12.62
27986;BMP280;15453;53.692;10.168;2023-01-04T09:41:19;100516.50;;;12.66
27986;BMP280;15453;53.692;10.168;2023-01-04T09:43:46;100506.06;;;12.68
27986;BMP280;15453;53.692;10.168;2023-01-04T09:46:20;100494.81;;;12.69
27986;BMP280;15453;53.692;10.168;2023-01-04T09:48:48;100508.28;;;12.71
27986;BMP280;15453;53.692;10.168;2023-01-04T09:51:18;100508.56;;;12.74
27986;BMP280;15453;53.692;10.168;2023-01-04T09:53:55;100512.69;;;12.77
27986;BMP280;15453;53.692;10.168;2023-01-04T09:56:31;100485.78;;;12.79
27986;BMP280;15453;53.692;10.168;2023-01-04T09:59:02;100494.28;;;12.82
27986;BMP280;15453;53.692;10.168;2023-01-04T10:01:44;100492.13;;;12.84
27986;BMP280;15453;53.692;10.168;2023-01-04T10:04:22;100475.06;;;12.87
27986;BMP280;15453;53.692;10.168;2023-01-04T10:06:48;100478.66;;;12.88
27986;BMP280;15453;53.692;10.168;2023-01-04T10:09:15;100475.09;;;12.92
27986;BMP280;15453;53.692;10.168;2023-01-04T10:17:36;100481.44;;;12.98
27986;BMP280;15453;53.692;10.168;2023-01-04T10:25:54;100463.34;;;13.07
27986;BMP280;15453;53.692;10.168;2023-01-04T10:28:36;100455.38;;;13.10
27986;BMP280;15453;53.692;10.168;2023-01-04T10:31:13;100462.25;;;13.13
27986;BMP280;15453;53.692;10.168;2023-01-04T10:33:53;100449.59;;;13.17
27986;BMP280;15453;53.692;10.168;2023-01-04T10:36:22;100457.31;;;13.20
27986;BMP280;15453;53.692;10.168;2023-01-04T10:39:02;100448.22;;;13.19
27986;BMP280;15453;53.692;10.168;2023-01-04T10:41:33;100452.34;;;13.22
27986;BMP280;15453;53.692;10.168;2023-01-04T10:44:14;100440.28;;;13.28
27986;BMP280;15453;53.692;10.168;2023-01-04T10:49:15;100435.59;;;13.18
27986;BMP280;15453;53.692;10.168;2023-01-04T10:51:50;100433.66;;;13.29
27986;BMP280;15453;53.692;10.168;2023-01-04T10:54:27;100424.03;;;13.31
27986;BMP280;15453;53.692;10.168;2023-01-04T10:59:41;100418.28;;;13.38
27986;BMP280;15453;53.692;10.168;2023-01-04T11:02:17;100404.50;;;13.38
27986;BMP280;15453;53.692;10.168;2023-01-04T11:07:43;100389.66;;;13.39
27986;BMP280;15453;53.692;10.168;2023-01-04T11:10:14;100392.69;;;13.42
27986;BMP280;15453;53.692;10.168;2023-01-04T11:12:41;100388.56;;;13.45
27986;BMP280;15453;53.692;10.168;2023-01-04T11:15:07;100384.44;;;13.47
27986;BMP280;15453;53.692;10.168;2023-01-04T11:17:33;100393.22;;;13.49
27986;BMP280;15453;53.692;10.168;2023-01-04T11:19:59;100391.84;;;13.52
27986;BMP280;15453;53.692;10.168;2023-01-04T11:22:30;100384.69;;;13.51
27986;BMP280;15453;53.692;10.168;2023-01-04T11:25:05;100386.06;;;13.53
27986;BMP280;15453;53.692;10.168;2023-01-04T11:27:38;100387.75;;;13.54
27986;BMP280;15453;53.692;10.168;2023-01-04T11:30:28;100384.97;;;13.59
27986;BMP280;15453;53.692;10.168;2023-01-04T11:33:03;100373.41;;;13.57
27986;BMP280;15453;53.692;10.168;2023-01-04T11:35:36;100379.47;;;13.59
27986;BMP280;15453;53.692;10.168;2023-01-04T11:38:10;100374.22;;;13.63
27986;BMP280;15453;53.692;10.168;2023-01-04T11:40:36;100380.00;;;13.71
27986;BMP280;15453;53.692;10.168;2023-01-04T11:43:15;100380.00;;;13.71
27986;BMP280;15453;53.692;10.168;2023-01-04T11:45:52;100361.28;;;13.68
27986;BMP280;15453;53.692;10.168;2023-01-04T11:48:17;100360.19;;;13.69
27986;BMP280;15453;53.692;10.168;2023-01-04T11:50:46;100363.19;;;13.73
27986;BMP280;15453;53.692;10.168;2023-01-04T11:56:11;100345.84;;;13.77
27986;BMP280;15453;53.692;10.168;2023-01-04T11:58:37;100347.22;;;13.80
27986;BMP280;15453;53.692;10.168;2023-01-04T12:01:03;100338.69;;;13.81
27986;BMP280;15453;53.692;10.168;2023-01-04T12:03:30;100339.25;;;13.83
27986;BMP280;15453;53.692;10.168;2023-01-04T12:05:57;100345.56;;;13.84
27986;BMP280;15453;53.692;10.168;2023-01-04T12:08:32;100344.72;;;13.88
27986;BMP280;15453;53.692;10.168;2023-01-04T12:11:00;100340.84;;;13.89
27986;BMP280;15453;53.692;10.168;2023-01-04T12:13:27;100347.44;;;13.98
27986;BMP280;15453;53.692;10.168;2023-01-04T12:16:20;100347.44;;;13.98
27986;BMP280;15453;53.692;10.168;2023-01-04T12:18:47;100344.69;;;13.93
27986;BMP280;15453;53.692;10.168;2023-01-04T12:21:33;100330.91;;;13.98
27986;BMP280;15453;53.692;10.168;2023-01-04T12:23:59;100323.75;;;13.97
27986;BMP280;15453;53.692;10.168;2023-01-04T12:26:25;100327.31;;;13.98
27986;BMP280;15453;53.692;10.168;2023-01-04T12:31:53;100316.03;;;13.99
27986;BMP280;15453;53.692;10.168;2023-01-04T12:34:42;100319.34;;;14.01
27986;BMP280;15453;53.692;10.168;2023-01-04T12:37:09;100324.00;;;14.06
27986;BMP280;15453;53.692;10.168;2023-01-04T12:42:12;100322.59;;;14.13
27986;BMP280;15453;53.692;10.168;2023-01-04T12:50:05;100331.38;;;14.15
27986;BMP280;15453;53.692;10.168;2023-01-04T12:55:02;100336.63;;;14.17
27986;BMP280;15453;53.692;10.168;2023-01-04T12:57:35;100322.00;;;14.16
27986;BMP280;15453;53.692;10.168;2023-01-04T13:00:03;100326.72;;;14.16
27986;BMP280;15453;53.692;10.168;2023-01-04T13:02:34;100335.50;;;14.18
27986;BMP280;15453;53.692;10.168;2023-01-04T13:05:02;100328.66;;;14.10
27986;BMP280;15453;53.692;10.168;2023-01-04T13:07:40;100326.97;;;14.19
27986;BMP280;15453;53.692;10.168;2023-01-04T13:10:26;100327.56;;;14.21
27986;BMP280;15453;53.692;10.168;2023-01-04T13:12:59;100320.09;;;14.22
27986;BMP280;15453;53.692;10.168;2023-01-04T13:15:39;100325.31;;;14.23
27986;BMP280;15453;53.692;10.168;2023-01-04T13:18:26;100324.22;;;14.24
27986;BMP280;15453;53.692;10.168;2023-01-04T13:20:52;100324.22;;;14.24
27986;BMP280;15453;53.692;10.168;2023-01-04T13:23:17;100314.56;;;14.27
27986;BMP280;15453;53.692;10.168;2023-01-04T13:25:43;100321.16;;;14.31
27986;BMP280;15453;53.692;10.168;2023-01-04T13:28:16;100314.81;;;14.30
27986;BMP280;15453;53.692;10.168;2023-01-04T13:30:42;100312.88;;;14.31
27986;BMP280;15453;53.692;10.168;2023-01-04T13:33:15;100320.84;;;14.32
27986;BMP280;15453;53.692;10.168;2023-01-04T13:35:42;100311.22;;;14.35
27986;BMP280;15453;53.692;10.168;2023-01-04T13:38:13;100308.44;;;14.35
27986;BMP280;15453;53.692;10.168;2023-01-04T13:40:43;100301.03;;;14.35
27986;BMP280;15453;53.692;10.168;2023-01-04T13:43:44;100297.69;;;14.38
27986;BMP280;15453;53.692;10.168;2023-01-04T13:46:22;100290.25;;;14.44
27986;BMP280;15453;53.692;10.168;2023-01-04T13:48:52;100290.25;;;14.44
27986;BMP280;15453;53.692;10.168;2023-01-04T13:51:25;100290.81;;;14.41
27986;BMP280;15453;53.692;10.168;2023-01-04T13:53:58;100281.41;;;14.42
27986;BMP280;15453;53.692;10.168;2023-01-04T13:56:26;100283.59;;;14.45
27986;BMP280;15453;53.692;10.168;2023-01-04T13:58:52;100270.94;;;14.44
27986;BMP280;15453;53.692;10.168;2023-01-04T14:03:51;100272.59;;;14.45
27986;BMP280;15453;53.692;10.168;2023-01-04T14:06:30;100275.88;;;14.47
27986;BMP280;15453;53.692;10.168;2023-01-04T14:17:03;100261.28;;;14.46
27986;BMP280;15453;53.692;10.168;2023-01-04T14:19:59;100264.06;;;14.41
27986;BMP280;15453;53.692;10.168;2023-01-04T14:24:59;100249.66;;;14.49
27986;BMP280;15453;53.692;10.168;2023-01-04T14:27:39;100254.91;;;14.51
27986;BMP280;15453;53.692;10.168;2023-01-04T14:32:59;100238.13;;;14.47
27986;BMP280;15453;53.692;10.168;2023-01-04T14:35:26;100249.16;;;14.47
27986;BMP280;15453;53.692;10.168;2023-01-04T14:37:51;100239.50;;;14.50
27986;BMP280;15453;53.692;10.168;2023-01-04T14:40:26;100226.53;;;14.50
27986;BMP280;15453;53.692;10.168;2023-01-04T14:42:53;100245.28;;;14.48
27986;BMP280;15453;53.692;10.168;2023-01-04T14:45:18;100236.44;;;14.51
27986;BMP280;15453;53.692;10.168;2023-01-04T14:47:43;100229.81;;;14.52
27986;BMP280;15453;53.692;10.168;2023-01-04T14:50:14;100227.34;;;14.51
27986;BMP280;15453;53.692;10.168;2023-01-04T14:52:49;100216.31;;;14.51
27986;BMP280;15453;53.692;10.168;2023-01-04T14:55:14;100221.03;;;14.50
27986;BMP280;15453;53.692;10.168;2023-01-04T14:57:39;100229.31;;;14.50
27986;BMP280;15453;53.692;10.168;2023-01-04T15:00:11;100233.97;;;14.50
27986;BMP280;15453;53.692;10.168;2023-01-04T15:02:36;100226.81;;;14.49
27986;BMP280;15453;53.692;10.168;2023-01-04T15:05:01;100212.22;;;14.48
27986;BMP280;15453;53.692;10.168;2023-01-04T15:07:37;100218.00;;;14.47
27986;BMP280;15453;53.692;10.168;2023-01-04T15:10:06;100218.84;;;14.47
27986;BMP280;15453;53.692;10.168;2023-01-04T15:12:31;100217.72;;;14.48
27986;BMP280;15453;53.692;10.168;2023-01-04T15:14:57;100211.69;;;14.46